sensor_id;sensor_type;location;lat;lon;timestamp;pressure;altitude;pressure_sealevel;temperature;humidity
54236;BME280;40151;43.606;1.472;2023-06-14T00:02:10;98837.31;;;25.12;57.04
54236;BME280;40151;43.606;1.472;2023-06-14T00:04:36;98837.59;;;25.09;56.94
54236;BME280;40151;43.606;1.472;2023-06-14T00:07:03;98837.44;;;25.11;56.98
54236;BME280;40151;43.606;1.472;2023-06-14T00:09:28;98845.44;;;25.11;57.06
54236;BME280;40151;43.606;1.472;2023-06-14T00:11:53;98837.59;;;25.09;56.93
54236;BME280;40151;43.606;1.472;2023-06-14T00:14:19;98842.94;;;25.09;56.92
54236;BME280;40151;43.606;1.472;2023-06-14T00:16:45;98838.28;;;25.11;57.08
54236;BME280;40151;43.606;1.472;2023-06-14T00:19:10;98844.88;;;25.07;57.14
54236;BME280;40151;43.606;1.472;2023-06-14T00:21:38;98831.66;;;25.05;57.23
54236;BME280;40151;43.606;1.472;2023-06-14T00:24:04;98829.84;;;25.06;56.96
54236;BME280;40151;43.606;1.472;2023-06-14T00:26:30;98836.16;;;25.05;56.85
54236;BME280;40151;43.606;1.472;2023-06-14T00:28:55;98824.63;;;25.04;57.32
54236;BME280;40151;43.606;1.472;2023-06-14T00:31:24;98826.31;;;25.05;57.02
54236;BME280;40151;43.606;1.472;2023-06-14T00:33:50;98820.84;;;25.07;57.13
54236;BME280;40151;43.606;1.472;2023-06-14T00:36:15;98825.50;;;25.05;56.93
54236;BME280;40151;43.606;1.472;2023-06-14T00:38:41;98816.78;;;25.03;57.30
54236;BME280;40151;43.606;1.472;2023-06-14T00:41:06;98817.63;;;25.03;57.20
54236;BME280;40151;43.606;1.472;2023-06-14T00:43:31;98815.81;;;25.04;56.90
54236;BME280;40151;43.606;1.472;2023-06-14T00:45:58;98810.59;;;25.02;56.95
54236;BME280;40151;43.606;1.472;2023-06-14T00:48:24;98818.72;;;25.01;56.87
54236;BME280;40151;43.606;1.472;2023-06-14T00:50:50;98822.13;;;25.03;57.16
54236;BME280;40151;43.606;1.472;2023-06-14T00:53:18;98816.78;;;25.03;57.14
54236;BME280;40151;43.606;1.472;2023-06-14T00:55:46;98811.72;;;25.00;57.24
54236;BME280;40151;43.606;1.472;2023-06-14T00:58:11;98816.19;;;24.99;56.81
54236;BME280;40151;43.606;1.472;2023-06-14T01:00:37;98812.69;;;24.99;57.26
54236;BME280;40151;43.606;1.472;2023-06-14T01:03:02;98804.69;;;24.99;57.25
54236;BME280;40151;43.606;1.472;2023-06-14T01:05:29;98813.69;;;24.98;57.08
54236;BME280;40151;43.606;1.472;2023-06-14T01:10:55;98811.97;;;24.97;56.93
54236;BME280;40151;43.606;1.472;2023-06-14T01:13:28;98809.47;;;24.95;57.02
54236;BME280;40151;43.606;1.472;2023-06-14T01:15:55;98817.59;;;24.93;57.09
54236;BME280;40151;43.606;1.472;2023-06-14T01:18:21;98808.72;;;24.93;57.31
54236;BME280;40151;43.606;1.472;2023-06-14T01:20:49;98808.59;;;24.94;57.23
54236;BME280;40151;43.606;1.472;2023-06-14T01:23:19;98811.41;;;24.93;57.28
54236;BME280;40151;43.606;1.472;2023-06-14T01:25:46;98809.59;;;24.93;57.12
54236;BME280;40151;43.606;1.472;2023-06-14T01:28:12;98817.59;;;24.93;57.11
54236;BME280;40151;43.606;1.472;2023-06-14T01:30:44;98810.56;;;24.92;56.96
54236;BME280;40151;43.606;1.472;2023-06-14T01:33:13;98808.88;;;24.91;57.55
54236;BME280;40151;43.606;1.472;2023-06-14T01:35:43;98817.72;;;24.92;57.00
54236;BME280;40151;43.606;1.472;2023-06-14T01:38:09;98813.38;;;24.91;57.42
54236;BME280;40151;43.606;1.472;2023-06-14T01:40:35;98816.88;;;24.91;57.26
54236;BME280;40151;43.606;1.472;2023-06-14T01:43:02;98814.34;;;24.90;57.06
54236;BME280;40151;43.606;1.472;2023-06-14T01:45:29;98825.16;;;24.88;57.14
54236;BME280;40151;43.606;1.472;2023-06-14T01:47:54;98818.97;;;24.88;57.41
54236;BME280;40151;43.606;1.472;2023-06-14T01:50:20;98814.75;;;24.85;57.69
54236;BME280;40151;43.606;1.472;2023-06-14T01:52:46;98817.44;;;24.85;57.40
54236;BME280;40151;43.606;1.472;2023-06-14T01:55:11;98813.34;;;24.81;57.61
54236;BME280;40151;43.606;1.472;2023-06-14T01:57:37;98820.09;;;24.85;57.55
54236;BME280;40151;43.606;1.472;2023-06-14T02:00:04;98820.34;;;24.82;57.53
54236;BME280;40151;43.606;1.472;2023-06-14T02:02:31;98811.38;;;24.83;57.51
54236;BME280;40151;43.606;1.472;2023-06-14T02:04:56;98813.34;;;24.81;57.75
54236;BME280;40151;43.606;1.472;2023-06-14T02:07:23;98816.69;;;24.83;57.57
54236;BME280;40151;43.606;1.472;2023-06-14T02:09:48;98816.69;;;24.83;57.83
54236;BME280;40151;43.606;1.472;2023-06-14T02:12:13;98809.69;;;24.82;57.87
54236;BME280;40151;43.606;1.472;2023-06-14T02:14:39;98822.28;;;24.80;57.79
54236;BME280;40151;43.606;1.472;2023-06-14T02:17:05;98816.22;;;24.78;57.66
54236;BME280;40151;43.606;1.472;2023-06-14T02:19:31;98809.94;;;24.79;57.95
54236;BME280;40151;43.606;1.472;2023-06-14T02:21:57;98808.22;;;24.78;57.73
54236;BME280;40151;43.606;1.472;2023-06-14T02:24:22;98804.72;;;24.77;57.72
54236;BME280;40151;43.606;1.472;2023-06-14T02:26:49;98806.53;;;24.77;57.83
54236;BME280;40151;43.606;1.472;2023-06-14T02:29:14;98808.22;;;24.78;57.55
54236;BME280;40151;43.606;1.472;2023-06-14T02:31:40;98802.88;;;24.78;57.67
54236;BME280;40151;43.606;1.472;2023-06-14T02:34:06;98801.31;;;24.75;57.80
54236;BME280;40151;43.606;1.472;2023-06-14T02:36:34;98811.75;;;24.78;57.47
54236;BME280;40151;43.606;1.472;2023-06-14T02:39:00;98804.84;;;24.76;57.87
54236;BME280;40151;43.606;1.472;2023-06-14T02:41:26;98804.00;;;24.75;57.59
54236;BME280;40151;43.606;1.472;2023-06-14T02:43:52;98804.16;;;24.74;57.70
54236;BME280;40151;43.606;1.472;2023-06-14T02:46:17;98800.63;;;24.73;57.70
54236;BME280;40151;43.606;1.472;2023-06-14T02:48:43;98797.25;;;24.71;57.97
54236;BME280;40151;43.606;1.472;2023-06-14T02:51:08;98802.44;;;24.73;57.89
54236;BME280;40151;43.606;1.472;2023-06-14T02:53:35;98810.44;;;24.73;58.02
54236;BME280;40151;43.606;1.472;2023-06-14T02:56:02;98798.09;;;24.72;57.91
54236;BME280;40151;43.606;1.472;2023-06-14T02:58:29;98812.16;;;24.74;57.94
54236;BME280;40151;43.606;1.472;2023-06-14T03:00:55;98800.75;;;24.72;57.83
54236;BME280;40151;43.606;1.472;2023-06-14T03:03:20;98810.44;;;24.73;57.77
54236;BME280;40151;43.606;1.472;2023-06-14T03:05:47;98807.06;;;24.71;57.79
54236;BME280;40151;43.606;1.472;2023-06-14T03:08:15;98812.16;;;24.74;57.80
54236;BME280;40151;43.606;1.472;2023-06-14T03:10:48;98806.09;;;24.72;57.79
54236;BME280;40151;43.606;1.472;2023-06-14T03:13:14;98809.03;;;24.69;57.70
54236;BME280;40151;43.606;1.472;2023-06-14T03:15:41;98822.25;;;24.70;58.05
54236;BME280;40151;43.606;1.472;2023-06-14T03:18:10;98823.09;;;24.71;57.89
54236;BME280;40151;43.606;1.472;2023-06-14T03:20:37;98822.50;;;24.67;57.71
54236;BME280;40151;43.606;1.472;2023-06-14T03:23:02;98826.72;;;24.70;57.98
54236;BME280;40151;43.606;1.472;2023-06-14T03:25:31;98824.06;;;24.70;57.63
54236;BME280;40151;43.606;1.472;2023-06-14T03:27:58;98824.59;;;24.63;58.07
54236;BME280;40151;43.606;1.472;2023-06-14T03:30:24;98822.75;;;24.64;58.09
54236;BME280;40151;43.606;1.472;2023-06-14T03:32:49;98831.63;;;24.64;57.92
54236;BME280;40151;43.606;1.472;2023-06-14T03:35:17;98835.97;;;24.65;57.98
54236;BME280;40151;43.606;1.472;2023-06-14T03:37:46;98829.66;;;24.66;57.79
54236;BME280;40151;43.606;1.472;2023-06-14T03:40:14;98835.72;;;24.69;57.72
54236;BME280;40151;43.606;1.472;2023-06-14T03:42:40;98823.38;;;24.67;57.72
54236;BME280;40151;43.606;1.472;2023-06-14T03:45:06;98830.38;;;24.69;57.66
54236;BME280;40151;43.606;1.472;2023-06-14T03:47:34;98828.81;;;24.66;57.87
54236;BME280;40151;43.606;1.472;2023-06-14T03:50:00;98843.00;;;24.66;57.60
54236;BME280;40151;43.606;1.472;2023-06-14T03:52:26;98843.00;;;24.66;57.78
54236;BME280;40151;43.606;1.472;2023-06-14T03:54:51;98848.31;;;24.66;57.71
54236;BME280;40151;43.606;1.472;2023-06-14T03:57:18;98851.16;;;24.65;57.99
54236;BME280;40151;43.606;1.472;2023-06-14T03:59:43;98859.00;;;24.66;57.69
54236;BME280;40151;43.606;1.472;2023-06-14T04:02:09;98848.59;;;24.63;57.62
54236;BME280;40151;43.606;1.472;2023-06-14T04:04:35;98854.75;;;24.64;57.69
54236;BME280;40151;43.606;1.472;2023-06-14T04:07:01;98853.66;;;24.66;57.67
54236;BME280;40151;43.606;1.472;2023-06-14T04:09:29;98849.19;;;24.67;57.52
54236;BME280;40151;43.606;1.472;2023-06-14T04:11:55;98857.31;;;24.65;57.72
54236;BME280;40151;43.606;1.472;2023-06-14T04:14:21;98864.50;;;24.65;57.63
54236;BME280;40151;43.606;1.472;2023-06-14T04:16:47;98867.97;;;24.65;57.54
54236;BME280;40151;43.606;1.472;2023-06-14T04:19:13;98868.97;;;24.64;57.50
54236;BME280;40151;43.606;1.472;2023-06-14T04:21:39;98869.09;;;24.63;57.59
54236;BME280;40151;43.606;1.472;2023-06-14T04:24:04;98870.94;;;24.62;57.87
54236;BME280;40151;43.606;1.472;2023-06-14T04:26:30;98872.16;;;24.58;58.06
54236;BME280;40151;43.606;1.472;2023-06-14T04:28:59;98879.06;;;24.61;57.72
54236;BME280;40151;43.606;1.472;2023-06-14T04:31:31;98875.53;;;24.60;57.71
54236;BME280;40151;43.606;1.472;2023-06-14T04:33:59;98874.69;;;24.60;57.71
54236;BME280;40151;43.606;1.472;2023-06-14T04:36:24;98878.94;;;24.62;57.77
54236;BME280;40151;43.606;1.472;2023-06-14T04:38:50;98879.19;;;24.59;57.53
54236;BME280;40151;43.606;1.472;2023-06-14T04:41:20;98878.34;;;24.59;57.64
54236;BME280;40151;43.606;1.472;2023-06-14T04:43:45;98882.81;;;24.58;57.96
54236;BME280;40151;43.606;1.472;2023-06-14T04:46:13;98879.19;;;24.59;57.79
54236;BME280;40151;43.606;1.472;2023-06-14T04:48:40;98877.50;;;24.58;57.81
54236;BME280;40151;43.606;1.472;2023-06-14T04:51:08;98873.97;;;24.58;57.59
54236;BME280;40151;43.606;1.472;2023-06-14T04:53:34;98874.81;;;24.58;57.49
54236;BME280;40151;43.606;1.472;2023-06-14T04:56:00;98875.81;;;24.57;57.68
54236;BME280;40151;43.606;1.472;2023-06-14T04:58:29;98882.81;;;24.58;58.04
54236;BME280;40151;43.606;1.472;2023-06-14T05:00:55;98886.47;;;24.57;57.63
54236;BME280;40151;43.606;1.472;2023-06-14T05:03:22;98881.97;;;24.58;57.68
54236;BME280;40151;43.606;1.472;2023-06-14T05:05:49;98892.50;;;24.59;57.65
54236;BME280;40151;43.606;1.472;2023-06-14T05:08:15;98888.16;;;24.58;57.60
54236;BME280;40151;43.606;1.472;2023-06-14T05:10:41;98894.19;;;24.60;57.53
54236;BME280;40151;43.606;1.472;2023-06-14T05:13:06;98897.72;;;24.61;57.56
54236;BME280;40151;43.606;1.472;2023-06-14T05:15:31;98890.69;;;24.60;57.69
54236;BME280;40151;43.606;1.472;2023-06-14T05:17:57;98891.81;;;24.57;57.72
54236;BME280;40151;43.606;1.472;2023-06-14T05:20:23;98897.28;;;24.56;57.90
54236;BME280;40151;43.606;1.472;2023-06-14T05:22:53;98902.72;;;24.54;57.67
54236;BME280;40151;43.606;1.472;2023-06-14T05:25:22;98903.47;;;24.56;57.87
54236;BME280;40151;43.606;1.472;2023-06-14T05:27:48;98908.06;;;24.54;57.91
54236;BME280;40151;43.606;1.472;2023-06-14T05:30:15;98915.94;;;24.56;57.75
54236;BME280;40151;43.606;1.472;2023-06-14T05:32:40;98915.22;;;24.53;57.75
54236;BME280;40151;43.606;1.472;2023-06-14T05:35:06;98923.81;;;24.57;57.79
54236;BME280;40151;43.606;1.472;2023-06-14T05:37:32;98922.38;;;24.53;57.69
54236;BME280;40151;43.606;1.472;2023-06-14T05:39:57;98920.41;;;24.55;57.58
54236;BME280;40151;43.606;1.472;2023-06-14T05:42:23;98924.81;;;24.56;57.70
54236;BME280;40151;43.606;1.472;2023-06-14T05:44:48;98925.75;;;24.55;57.67
54236;BME280;40151;43.606;1.472;2023-06-14T05:47:14;98929.41;;;24.54;57.68
54236;BME280;40151;43.606;1.472;2023-06-14T05:49:39;98929.41;;;24.54;57.74
54236;BME280;40151;43.606;1.472;2023-06-14T05:52:05;98932.22;;;24.52;58.09
54236;BME280;40151;43.606;1.472;2023-06-14T05:54:31;98929.69;;;24.51;57.60
54236;BME280;40151;43.606;1.472;2023-06-14T05:56:56;98937.78;;;24.49;57.90
54236;BME280;40151;43.606;1.472;2023-06-14T05:59:29;98940.34;;;24.51;57.71
54236;BME280;40151;43.606;1.472;2023-06-14T06:01:54;98945.69;;;24.51;57.82
54236;BME280;40151;43.606;1.472;2023-06-14T06:04:20;98943.13;;;24.49;57.81
54236;BME280;40151;43.606;1.472;2023-06-14T06:06:45;98959.00;;;24.51;57.86
54236;BME280;40151;43.606;1.472;2023-06-14T06:09:11;98954.66;;;24.50;57.92
54236;BME280;40151;43.606;1.472;2023-06-14T06:11:37;98959.25;;;24.48;57.71
54236;BME280;40151;43.606;1.472;2023-06-14T06:14:02;98958.28;;;24.49;57.63
54236;BME280;40151;43.606;1.472;2023-06-14T06:16:28;98958.53;;;24.46;57.66
54236;BME280;40151;43.606;1.472;2023-06-14T06:18:53;98956.47;;;24.49;57.72
54236;BME280;40151;43.606;1.472;2023-06-14T06:21:19;98960.22;;;24.47;57.62
54236;BME280;40151;43.606;1.472;2023-06-14T06:23:44;98967.25;;;24.48;57.53
54236;BME280;40151;43.606;1.472;2023-06-14T06:26:10;98966.28;;;24.49;57.66
54236;BME280;40151;43.606;1.472;2023-06-14T06:28:35;98968.94;;;24.49;57.64
54236;BME280;40151;43.606;1.472;2023-06-14T06:31:01;98964.59;;;24.48;57.67
54236;BME280;40151;43.606;1.472;2023-06-14T06:33:26;98967.00;;;24.51;57.72
54236;BME280;40151;43.606;1.472;2023-06-14T06:35:51;98974.88;;;24.52;57.75
54236;BME280;40151;43.606;1.472;2023-06-14T06:38:17;98981.56;;;24.47;57.74
54236;BME280;40151;43.606;1.472;2023-06-14T06:40:44;98986.66;;;24.50;57.71
54236;BME280;40151;43.606;1.472;2023-06-14T06:43:09;98987.75;;;24.47;57.78
54236;BME280;40151;43.606;1.472;2023-06-14T06:45:39;98988.59;;;24.48;57.48
54236;BME280;40151;43.606;1.472;2023-06-14T06:48:04;98993.22;;;24.46;57.87
54236;BME280;40151;43.606;1.472;2023-06-14T06:50:30;99002.03;;;24.46;57.82
54236;BME280;40151;43.606;1.472;2023-06-14T06:52:55;99002.19;;;24.45;57.93
54236;BME280;40151;43.606;1.472;2023-06-14T06:55:21;99001.22;;;24.46;57.77
54236;BME280;40151;43.606;1.472;2023-06-14T06:57:46;99006.53;;;24.46;57.77
54236;BME280;40151;43.606;1.472;2023-06-14T07:00:12;99006.28;;;24.49;57.71
54236;BME280;40151;43.606;1.472;2023-06-14T07:02:38;99020.00;;;24.44;57.75
54236;BME280;40151;43.606;1.472;2023-06-14T07:05:04;99014.78;;;24.43;57.88
54236;BME280;40151;43.606;1.472;2023-06-14T07:07:29;99022.78;;;24.43;57.72
54236;BME280;40151;43.606;1.472;2023-06-14T07:09:55;99018.03;;;24.46;57.86
54236;BME280;40151;43.606;1.472;2023-06-14T07:12:23;99024.50;;;24.44;58.01
54236;BME280;40151;43.606;1.472;2023-06-14T07:14:48;99027.19;;;24.44;57.98
54236;BME280;40151;43.606;1.472;2023-06-14T07:17:13;99028.72;;;24.46;57.87
54236;BME280;40151;43.606;1.472;2023-06-14T07:19:39;99033.44;;;24.43;57.83
54236;BME280;40151;43.606;1.472;2023-06-14T07:22:04;99043.16;;;24.44;58.11
54236;BME280;40151;43.606;1.472;2023-06-14T07:24:30;99041.59;;;24.41;57.78
54236;BME280;40151;43.606;1.472;2023-06-14T07:26:55;99035.41;;;24.40;57.84
54236;BME280;40151;43.606;1.472;2023-06-14T07:29:21;99042.44;;;24.42;57.84
54236;BME280;40151;43.606;1.472;2023-06-14T07:31:47;99041.84;;;24.38;57.79
54236;BME280;40151;43.606;1.472;2023-06-14T07:34:12;99037.38;;;24.38;57.81
54236;BME280;40151;43.606;1.472;2023-06-14T07:36:38;99044.38;;;24.39;57.86
54236;BME280;40151;43.606;1.472;2023-06-14T07:39:03;99045.22;;;24.40;57.74
54236;BME280;40151;43.606;1.472;2023-06-14T07:41:31;99047.75;;;24.42;58.02
54236;BME280;40151;43.606;1.472;2023-06-14T07:43:56;99051.41;;;24.40;58.06
54236;BME280;40151;43.606;1.472;2023-06-14T07:46:21;99048.97;;;24.37;57.94
54236;BME280;40151;43.606;1.472;2023-06-14T07:48:47;99055.16;;;24.38;57.89
54236;BME280;40151;43.606;1.472;2023-06-14T07:51:13;99058.94;;;24.35;58.08
54236;BME280;40151;43.606;1.472;2023-06-14T07:53:38;99056.03;;;24.38;58.05
54236;BME280;40151;43.606;1.472;2023-06-14T07:56:04;99061.22;;;24.40;58.08
54236;BME280;40151;43.606;1.472;2023-06-14T07:58:30;99059.41;;;24.40;57.85
54236;BME280;40151;43.606;1.472;2023-06-14T08:00:55;99060.38;;;24.39;58.14
54236;BME280;40151;43.606;1.472;2023-06-14T08:03:21;99068.28;;;24.41;58.05
54236;BME280;40151;43.606;1.472;2023-06-14T08:05:47;99063.75;;;24.42;57.98
54236;BME280;40151;43.606;1.472;2023-06-14T08:08:13;99064.75;;;24.40;57.91
54236;BME280;40151;43.606;1.472;2023-06-14T08:10:38;99066.44;;;24.42;58.04
54236;BME280;40151;43.606;1.472;2023-06-14T08:13:03;99072.75;;;24.40;58.26
54236;BME280;40151;43.606;1.472;2023-06-14T08:15:29;99071.28;;;24.36;58.06
54236;BME280;40151;43.606;1.472;2023-06-14T08:17:54;99070.06;;;24.40;57.80
54236;BME280;40151;43.606;1.472;2023-06-14T08:20:20;99081.72;;;24.39;58.25
54236;BME280;40151;43.606;1.472;2023-06-14T08:22:45;99078.94;;;24.41;58.05
54236;BME280;40151;43.606;1.472;2023-06-14T08:25:12;99080.63;;;24.42;57.79
54236;BME280;40151;43.606;1.472;2023-06-14T08:27:37;99079.06;;;24.39;57.93
54236;BME280;40151;43.606;1.472;2023-06-14T08:30:03;99077.84;;;24.44;57.91
54236;BME280;40151;43.606;1.472;2023-06-14T08:32:29;99084.28;;;24.41;58.06
54236;BME280;40151;43.606;1.472;2023-06-14T08:34:54;99094.19;;;24.39;57.85
54236;BME280;40151;43.606;1.472;2023-06-14T08:37:20;99092.38;;;24.39;58.11
54236;BME280;40151;43.606;1.472;2023-06-14T08:39:45;99098.56;;;24.40;58.06
54236;BME280;40151;43.606;1.472;2023-06-14T08:42:12;99088.75;;;24.40;57.81
54236;BME280;40151;43.606;1.472;2023-06-14T08:44:39;99087.06;;;24.39;57.97
54236;BME280;40151;43.606;1.472;2023-06-14T08:47:06;99088.97;;;24.37;58.04
54236;BME280;40151;43.606;1.472;2023-06-14T08:49:32;99099.41;;;24.40;58.15
54236;BME280;40151;43.606;1.472;2023-06-14T08:52:00;99095.75;;;24.42;58.25
54236;BME280;40151;43.606;1.472;2023-06-14T08:54:27;99097.44;;;24.43;57.98
54236;BME280;40151;43.606;1.472;2023-06-14T08:56:55;99097.44;;;24.43;57.86
54236;BME280;40151;43.606;1.472;2023-06-14T08:59:25;99095.75;;;24.42;58.18
54236;BME280;40151;43.606;1.472;2023-06-14T09:01:52;99093.09;;;24.42;57.91
54236;BME280;40151;43.606;1.472;2023-06-14T09:04:20;99101.97;;;24.42;57.86
54236;BME280;40151;43.606;1.472;2023-06-14T09:06:46;99098.44;;;24.42;58.14
54236;BME280;40151;43.606;1.472;2023-06-14T09:09:20;99104.50;;;24.44;57.83
54236;BME280;40151;43.606;1.472;2023-06-14T09:11:49;99103.53;;;24.45;57.95
54236;BME280;40151;43.606;1.472;2023-06-14T09:14:14;99104.25;;;24.47;57.81
54236;BME280;40151;43.606;1.472;2023-06-14T09:16:40;99100.97;;;24.43;58.10
54236;BME280;40151;43.606;1.472;2023-06-14T09:19:05;99102.66;;;24.44;57.90
54236;BME280;40151;43.606;1.472;2023-06-14T09:21:34;99103.53;;;24.45;57.81
54236;BME280;40151;43.606;1.472;2023-06-14T09:24:01;99105.09;;;24.47;58.06
54236;BME280;40151;43.606;1.472;2023-06-14T09:26:27;99117.56;;;24.47;57.95
54236;BME280;40151;43.606;1.472;2023-06-14T09:28:53;99111.25;;;24.48;57.83
54236;BME280;40151;43.606;1.472;2023-06-14T09:31:20;99112.13;;;24.48;57.71
54236;BME280;40151;43.606;1.472;2023-06-14T09:33:48;99107.88;;;24.46;57.74
54236;BME280;40151;43.606;1.472;2023-06-14T09:36:18;99109.34;;;24.50;57.86
54236;BME280;40151;43.606;1.472;2023-06-14T09:39:00;99111.25;;;24.48;57.86
54236;BME280;40151;43.606;1.472;2023-06-14T09:41:32;99110.44;;;24.47;58.01
54236;BME280;40151;43.606;1.472;2023-06-14T09:44:00;99114.03;;;24.46;57.81
54236;BME280;40151;43.606;1.472;2023-06-14T09:46:27;99120.25;;;24.47;57.93
54236;BME280;40151;43.606;1.472;2023-06-14T09:48:54;99112.25;;;24.47;57.85
54236;BME280;40151;43.606;1.472;2023-06-14T09:51:22;99118.56;;;24.46;57.86
54236;BME280;40151;43.606;1.472;2023-06-14T09:53:51;99125.56;;;24.47;57.83
54236;BME280;40151;43.606;1.472;2023-06-14T09:56:30;99130.91;;;24.47;58.08
54236;BME280;40151;43.606;1.472;2023-06-14T09:58:57;99128.97;;;24.49;57.71
54236;BME280;40151;43.606;1.472;2023-06-14T10:01:24;99126.28;;;24.49;58.20
54236;BME280;40151;43.606;1.472;2023-06-14T10:04:04;99137.69;;;24.51;58.06
54236;BME280;40151;43.606;1.472;2023-06-14T10:06:31;99115.50;;;24.50;58.03
54236;BME280;40151;43.606;1.472;2023-06-14T10:08:58;99125.06;;;24.53;58.10
54236;BME280;40151;43.606;1.472;2023-06-14T10:11:27;99123.38;;;24.52;58.15
54236;BME280;40151;43.606;1.472;2023-06-14T10:13:57;99125.06;;;24.53;57.76
54236;BME280;40151;43.606;1.472;2023-06-14T10:16:24;99113.44;;;24.54;57.68
54236;BME280;40151;43.606;1.472;2023-06-14T10:19:11;99119.50;;;24.56;57.82
54236;BME280;40151;43.606;1.472;2023-06-14T10:21:59;99120.34;;;24.57;57.94
54236;BME280;40151;43.606;1.472;2023-06-14T10:24:33;99117.53;;;24.58;57.92
54236;BME280;40151;43.606;1.472;2023-06-14T10:26:59;99120.22;;;24.58;57.87
54236;BME280;40151;43.606;1.472;2023-06-14T10:29:26;99114.88;;;24.58;57.62
54236;BME280;40151;43.606;1.472;2023-06-14T10:31:58;99114.88;;;24.58;57.62
54236;BME280;40151;43.606;1.472;2023-06-14T10:34:25;99114.75;;;24.60;57.66
54236;BME280;40151;43.606;1.472;2023-06-14T10:37:07;99115.47;;;24.62;57.69
54236;BME280;40151;43.606;1.472;2023-06-14T10:39:43;99117.03;;;24.64;57.77
54236;BME280;40151;43.606;1.472;2023-06-14T10:42:11;99117.03;;;24.64;57.76
54236;BME280;40151;43.606;1.472;2023-06-14T10:47:06;99120.41;;;24.66;57.71
54236;BME280;40151;43.606;1.472;2023-06-14T10:49:39;99113.97;;;24.69;57.65
54236;BME280;40151;43.606;1.472;2023-06-14T10:52:12;99114.84;;;24.70;57.70
54236;BME280;40151;43.606;1.472;2023-06-14T10:55:17;99117.41;;;24.71;57.59
54236;BME280;40151;43.606;1.472;2023-06-14T10:57:51;99112.06;;;24.71;57.50
54236;BME280;40151;43.606;1.472;2023-06-14T11:00:22;99115.56;;;24.72;57.61
54236;BME280;40151;43.606;1.472;2023-06-14T11:11:07;99117.97;;;24.75;57.57
54236;BME280;40151;43.606;1.472;2023-06-14T11:13:32;99116.16;;;24.75;57.46
54236;BME280;40151;43.606;1.472;2023-06-14T11:15:58;99117.00;;;24.76;57.58
54236;BME280;40151;43.606;1.472;2023-06-14T11:18:24;99116.03;;;24.77;57.28
54236;BME280;40151;43.606;1.472;2023-06-14T11:20:50;99116.88;;;24.77;57.45
54236;BME280;40151;43.606;1.472;2023-06-14T11:23:15;99121.25;;;24.78;57.61
54236;BME280;40151;43.606;1.472;2023-06-14T11:25:41;99110.56;;;24.78;57.66
54236;BME280;40151;43.606;1.472;2023-06-14T11:28:06;99112.25;;;24.79;57.32
54236;BME280;40151;43.606;1.472;2023-06-14T11:30:32;99117.50;;;24.81;57.76
54236;BME280;40151;43.606;1.472;2023-06-14T11:32:57;99106.84;;;24.81;57.74
54236;BME280;40151;43.606;1.472;2023-06-14T11:35:24;99113.00;;;24.82;57.35
54236;BME280;40151;43.606;1.472;2023-06-14T11:37:56;99116.53;;;24.82;57.54
54236;BME280;40151;43.606;1.472;2023-06-14T11:40:26;99115.56;;;24.83;57.44
54236;BME280;40151;43.606;1.472;2023-06-14T11:43:00;99111.06;;;24.84;57.74
54236;BME280;40151;43.606;1.472;2023-06-14T11:45:26;99105.63;;;24.85;57.32
54236;BME280;40151;43.606;1.472;2023-06-14T11:47:54;99118.97;;;24.85;57.55
54236;BME280;40151;43.606;1.472;2023-06-14T11:50:21;99118.09;;;24.85;57.56
54236;BME280;40151;43.606;1.472;2023-06-14T11:52:53;99122.47;;;24.86;57.90
54236;BME280;40151;43.606;1.472;2023-06-14T11:55:18;99115.31;;;24.86;57.68
54236;BME280;40151;43.606;1.472;2023-06-14T11:57:46;99109.00;;;24.87;57.41
54236;BME280;40151;43.606;1.472;2023-06-14T12:00:12;99112.50;;;24.88;57.62
54236;BME280;40151;43.606;1.472;2023-06-14T12:02:38;99103.53;;;24.89;57.37
54236;BME280;40151;43.606;1.472;2023-06-14T12:05:05;99111.38;;;24.90;57.23
54236;BME280;40151;43.606;1.472;2023-06-14T12:07:33;99100.88;;;24.89;57.83
54236;BME280;40151;43.606;1.472;2023-06-14T12:12:24;99094.56;;;24.90;57.39
54236;BME280;40151;43.606;1.472;2023-06-14T12:14:55;99098.03;;;24.90;57.27
54236;BME280;40151;43.606;1.472;2023-06-14T12:17:21;99097.09;;;24.91;57.35
54236;BME280;40151;43.606;1.472;2023-06-14T12:19:48;99110.44;;;24.91;57.56
54236;BME280;40151;43.606;1.472;2023-06-14T12:22:15;99106.78;;;24.92;57.35
54236;BME280;40151;43.606;1.472;2023-06-14T12:24:45;99111.16;;;24.93;57.33
54236;BME280;40151;43.606;1.472;2023-06-14T12:27:10;99110.28;;;24.93;57.37
54236;BME280;40151;43.606;1.472;2023-06-14T12:29:45;99103.03;;;24.95;57.53
54236;BME280;40151;43.606;1.472;2023-06-14T12:32:11;99103.84;;;24.96;57.54
54236;BME280;40151;43.606;1.472;2023-06-14T12:34:37;99103.84;;;24.96;57.41
54236;BME280;40151;43.606;1.472;2023-06-14T12:37:02;99105.53;;;24.97;57.48
54236;BME280;40151;43.606;1.472;2023-06-14T12:39:31;99105.53;;;24.97;57.25
54236;BME280;40151;43.606;1.472;2023-06-14T12:41:57;99103.59;;;24.99;57.17
54236;BME280;40151;43.606;1.472;2023-06-14T12:44:23;99102.75;;;24.98;57.38
54236;BME280;40151;43.606;1.472;2023-06-14T12:46:48;99121.31;;;25.00;57.56
54236;BME280;40151;43.606;1.472;2023-06-14T12:49:16;99110.63;;;25.00;57.35
54236;BME280;40151;43.606;1.472;2023-06-14T12:51:42;99098.00;;;25.02;57.32
54236;BME280;40151;43.606;1.472;2023-06-14T12:54:07;99100.53;;;25.03;57.54
54236;BME280;40151;43.606;1.472;2023-06-14T12:56:33;99103.09;;;25.05;57.43
54236;BME280;40151;43.606;1.472;2023-06-14T12:58:59;99103.09;;;25.05;57.15
54236;BME280;40151;43.606;1.472;2023-06-14T13:01:24;99102.22;;;25.04;57.59
54236;BME280;40151;43.606;1.472;2023-06-14T13:03:50;99103.78;;;25.07;57.51
54236;BME280;40151;43.606;1.472;2023-06-14T13:06:20;99096.66;;;25.07;57.66
54236;BME280;40151;43.606;1.472;2023-06-14T13:08:46;99098.34;;;25.09;57.18
54236;BME280;40151;43.606;1.472;2023-06-14T13:11:11;99093.84;;;25.09;57.46
54236;BME280;40151;43.606;1.472;2023-06-14T13:13:37;99106.22;;;25.10;57.18
54236;BME280;40151;43.606;1.472;2023-06-14T13:16:02;99098.22;;;25.10;57.44